Wilsona Gardens, California
Current Conditions -  °F | °C
As of 12:58 AM on Friday 31 Oct 2014 (Local Time) from KEDW Reporting Station
Clear Clear  
Wind Chill: 55°   Ceiling: Unl
Heat Index: 55°   Visibility: 10mi
Dew Point: 35°   Wind: 7mph
Humidity: 47%   Direction: 200°SSW
Pressure: 29.96"   Gusts: NA
Location:  34.7192°N, 117.884°W
Report Text: KEDW 310758Z AUTO 20006KT 10SM CLR 13/02 A2996 RMK AO2 SLP130 T01270016 402710059
Loading
Personal Weather Stations






























Interactive Weather Map
Tropical Storm Tracking
New forecast layout! Learn more

10-Day Weather Forecast

Advertisements
Track Severe Weather on mobile